Time;durP1;ratioP1;P1;durP2;ratioP2;P2;SDS_P1;SDS_P2;PMS_P1;PMS_P2;Temp;Humidity;BMP_temperature;BMP_pressure;BME280_temperature;BME280_humidity;BME280_pressure;Samples;Min_cycle;Max_cycle;Signal;HPM_P1;HPM_P2
2022/06/11 00:00:32;;;;;;;3.85;3.08;;;16.00;99.90;;;;;;5089820;28;20211;-50
2022/06/11 00:03:01;;;;;;;5.45;3.17;;;16.00;99.90;;;;;;5089205;28;20320;-51
2022/06/11 00:05:29;;;;;;;5.22;3.55;;;16.00;99.90;;;;;;5089533;28;20231;-50
2022/06/11 00:07:58;;;;;;;7.55;3.15;;;16.10;99.90;;;;;;5087878;28;20205;-52
2022/06/11 00:10:26;;;;;;;5.78;3.60;;;16.00;99.90;;;;;;5094224;28;20236;-51
2022/06/11 00:12:54;;;;;;;7.57;3.40;;;16.10;99.90;;;;;;5080097;28;20205;-50
2022/06/11 00:15:22;;;;;;;5.15;3.95;;;16.10;99.90;;;;;;5085697;28;20227;-51
2022/06/11 00:17:53;;;;;;;5.28;3.58;;;16.00;99.90;;;;;;5074965;28;20216;-50
2022/06/11 00:20:21;;;;;;;7.75;3.65;;;16.00;99.90;;;;;;5088919;28;20200;-51
2022/06/11 00:22:49;;;;;;;8.75;4.00;;;16.00;99.90;;;;;;5088806;28;20246;-51
2022/06/11 00:25:17;;;;;;;5.47;3.53;;;16.00;99.90;;;;;;5088849;28;20724;-51
2022/06/11 00:27:45;;;;;;;6.43;3.15;;;16.10;99.90;;;;;;5089693;28;20216;-50
2022/06/11 00:30:13;;;;;;;6.80;3.53;;;16.10;99.90;;;;;;5089215;28;20230;-51
2022/06/11 00:32:41;;;;;;;6.35;3.67;;;16.10;99.90;;;;;;5088789;28;20208;-51
2022/06/11 00:35:12;;;;;;;6.22;3.55;;;16.00;99.90;;;;;;5089377;28;20281;-51
2022/06/11 00:37:41;;;;;;;5.85;3.65;;;16.00;99.90;;;;;;5088839;28;20273;-51
2022/06/11 00:40:13;;;;;;;6.30;3.17;;;16.00;99.90;;;;;;5089478;28;20219;-50
2022/06/11 00:42:41;;;;;;;5.72;3.35;;;15.90;99.90;;;;;;5089025;28;20216;-51
2022/06/11 00:45:16;;;;;;;5.25;3.72;;;15.90;99.90;;;;;;5088721;28;20297;-50
2022/06/11 00:47:47;;;;;;;6.97;3.58;;;15.90;99.90;;;;;;5088894;28;20273;-50
2022/06/11 00:50:23;;;;;;;5.65;3.30;;;15.90;99.90;;;;;;5089404;28;20204;-51
2022/06/11 00:52:52;;;;;;;5.68;3.95;;;15.90;99.90;;;;;;5088596;28;20637;-51
2022/06/11 00:55:27;;;;;;;4.32;3.40;;;15.90;99.90;;;;;;5084167;28;20231;-51
2022/06/11 00:57:59;;;;;;;4.45;3.22;;;15.90;99.90;;;;;;5097855;28;20216;-50
2022/06/11 01:00:31;;;;;;;5.90;3.80;;;15.80;99.90;;;;;;5097561;28;20200;-51
2022/06/11 01:02:59;;;;;;;6.90;3.55;;;15.80;99.90;;;;;;5094500;28;20258;-51
2022/06/11 01:05:32;;;;;;;4.88;3.40;;;15.80;99.90;;;;;;5092302;28;20786;-51
2022/06/11 01:08:30;;;;;;;7.55;3.55;;;15.80;99.90;;;;;;5092450;28;20266;-51
2022/06/11 01:11:31;;;;;;;6.97;3.90;;;15.80;99.90;;;;;;5092607;28;20262;-51
2022/06/11 01:14:15;;;;;;;6.68;3.88;;;15.80;99.90;;;;;;5086645;28;20622;-51
2022/06/11 01:16:56;;;;;;;9.40;3.70;;;15.70;99.90;;;;;;5083393;28;20229;-51
2022/06/11 01:19:56;;;;;;;7.32;3.72;;;15.60;99.90;;;;;;5088920;28;20235;-51
2022/06/11 01:22:44;;;;;;;5.40;3.20;;;15.60;99.90;;;;;;5092143;28;20266;-51
2022/06/11 01:25:22;;;;;;;7.40;3.72;;;15.60;99.90;;;;;;5080357;28;20216;-50
2022/06/11 01:28:22;;;;;;;6.68;3.70;;;15.70;99.90;;;;;;5092142;28;20212;-51
2022/06/11 01:30:57;;;;;;;6.68;3.90;;;15.70;99.90;;;;;;5092281;28;20236;-51
2022/06/11 01:33:32;;;;;;;7.25;3.50;;;15.70;99.90;;;;;;5092269;28;20243;-50
2022/06/11 01:36:09;;;;;;;9.40;3.78;;;15.70;99.90;;;;;;5092132;28;20255;-50
2022/06/11 01:38:41;;;;;;;8.30;3.90;;;15.70;99.90;;;;;;5091389;28;20246;-50
2022/06/11 01:41:28;;;;;;;7.10;3.58;;;15.70;99.90;;;;;;5092168;28;20872;-50
2022/06/11 01:44:01;;;;;;;7.10;4.00;;;15.70;99.90;;;;;;5080573;28;20267;-51
2022/06/11 01:46:33;;;;;;;7.60;3.83;;;15.70;99.90;;;;;;5091366;28;20333;-51
2022/06/11 01:49:05;;;;;;;6.63;3.70;;;15.70;99.90;;;;;;5091728;28;20253;-51
2022/06/11 01:51:47;;;;;;;5.97;3.95;;;15.60;99.90;;;;;;5091820;28;20270;-51
2022/06/11 01:54:33;;;;;;;7.03;3.65;;;15.60;99.90;;;;;;5091731;28;20208;-50
2022/06/11 01:57:21;;;;;;;7.95;3.63;;;15.50;99.90;;;;;;5091701;28;20257;-50
2022/06/11 02:00:10;;;;;;;5.65;3.55;;;15.40;99.90;;;;;;5091680;28;20266;-50
2022/06/11 02:03:04;;;;;;;9.40;4.20;;;15.40;99.90;;;;;;5082835;28;20219;-50
2022/06/11 02:05:44;;;;;;;4.63;3.65;;;15.40;99.90;;;;;;5091001;28;20258;-51
2022/06/11 02:08:29;;;;;;;7.20;3.70;;;15.30;99.90;;;;;;5091469;28;20253;-50
2022/06/11 02:11:06;;;;;;;6.00;3.80;;;15.30;99.90;;;;;;5091186;28;20205;-50
2022/06/11 02:13:39;;;;;;;5.47;3.97;;;15.20;99.90;;;;;;5091096;28;20254;-51
2022/06/11 02:16:13;;;;;;;8.45;4.32;;;15.20;99.90;;;;;;5087660;28;20225;-51
2022/06/11 02:18:45;;;;;;;6.13;4.10;;;15.10;99.90;;;;;;5081379;28;20215;-51
2022/06/11 02:21:16;;;;;;;6.82;4.03;;;15.10;99.90;;;;;;5091161;28;20200;-50
2022/06/11 02:23:52;;;;;;;7.13;4.25;;;15.10;99.90;;;;;;5091249;28;20220;-50
2022/06/11 02:26:24;;;;;;;6.32;3.85;;;15.00;99.90;;;;;;5091198;28;20228;-50
2022/06/11 02:28:53;;;;;;;5.30;3.60;;;15.00;99.90;;;;;;5091136;28;20201;-50
2022/06/11 02:31:25;;;;;;;8.00;4.03;;;14.90;99.90;;;;;;5090977;28;20196;-50
2022/06/11 02:33:55;;;;;;;7.57;4.60;;;14.90;99.90;;;;;;5091165;28;20255;-51
2022/06/11 02:36:27;;;;;;;6.07;4.17;;;14.80;99.90;;;;;;5090530;28;20752;-50
2022/06/11 02:38:55;;;;;;;8.80;4.37;;;14.80;99.90;;;;;;5090713;28;20210;-50
2022/06/11 02:41:27;;;;;;;6.03;3.97;;;14.80;99.90;;;;;;5091092;28;20692;-50
2022/06/11 02:43:55;;;;;;;5.57;4.20;;;14.70;99.90;;;;;;5090574;28;20266;-50
2022/06/11 02:46:43;;;;;;;6.30;3.87;;;14.70;99.90;;;;;;5089575;28;20274;-51
2022/06/11 02:49:16;;;;;;;11.20;4.78;;;14.70;99.90;;;;;;5098181;28;20203;-50
2022/06/11 02:51:45;;;;;;;7.60;4.53;;;14.70;99.90;;;;;;5090923;28;20239;-50
2022/06/11 02:54:14;;;;;;;7.47;4.97;;;14.60;99.90;;;;;;5090786;28;20201;-50
2022/06/11 02:56:42;;;;;;;9.13;5.43;;;14.60;99.90;;;;;;5090570;28;20650;-50
2022/06/11 02:59:11;;;;;;;9.63;4.53;;;14.50;99.90;;;;;;5090606;28;20201;-51
2022/06/11 03:01:39;;;;;;;7.07;4.30;;;14.50;99.90;;;;;;5090347;28;20264;-50
2022/06/11 03:04:08;;;;;;;10.87;4.37;;;14.50;99.90;;;;;;5090749;28;20224;-51
2022/06/11 03:06:40;;;;;;;6.83;4.20;;;14.50;99.90;;;;;;5090529;28;20300;-50
2022/06/11 03:09:10;;;;;;;7.57;4.10;;;14.50;99.90;;;;;;5090217;28;20208;-51
2022/06/11 03:11:39;;;;;;;9.50;4.27;;;14.50;99.90;;;;;;5090424;28;20258;-50
2022/06/11 03:14:08;;;;;;;9.43;4.77;;;14.50;99.90;;;;;;5090625;28;20261;-50
2022/06/11 03:16:37;;;;;;;6.77;4.17;;;14.40;99.90;;;;;;5090333;28;20228;-50
2022/06/11 03:19:06;;;;;;;7.90;4.10;;;14.40;99.90;;;;;;5090234;28;20212;-50
2022/06/11 03:21:34;;;;;;;6.97;4.90;;;14.40;99.90;;;;;;5090175;28;20261;-51
2022/06/11 03:24:03;;;;;;;5.90;4.53;;;14.40;99.90;;;;;;5089794;28;20239;-50
2022/06/11 03:26:32;;;;;;;8.60;5.30;;;14.40;99.90;;;;;;5089868;28;20269;-50
2022/06/11 03:29:00;;;;;;;7.00;4.50;;;14.40;99.90;;;;;;5090117;28;20677;-51
2022/06/11 03:31:29;;;;;;;7.53;4.57;;;14.40;99.90;;;;;;5089808;28;20212;-51
2022/06/11 03:33:57;;;;;;;9.70;4.60;;;14.40;99.90;;;;;;5090001;28;20223;-51
2022/06/11 03:36:25;;;;;;;7.23;4.70;;;14.40;99.90;;;;;;5090129;28;20278;-51
2022/06/11 03:38:53;;;;;;;7.60;4.57;;;14.40;99.90;;;;;;5089501;28;20587;-51
2022/06/11 03:41:22;;;;;;;6.87;4.60;;;14.50;99.90;;;;;;5089728;28;20236;-50
2022/06/11 03:43:51;;;;;;;8.37;4.73;;;14.50;99.90;;;;;;5089773;28;20232;-50
2022/06/11 03:46:21;;;;;;;7.83;4.70;;;14.60;99.90;;;;;;5089673;28;20235;-50
2022/06/11 03:48:50;;;;;;;6.10;4.50;;;14.60;99.90;;;;;;5089976;28;20204;-50
2022/06/11 03:51:18;;;;;;;5.70;4.33;;;14.70;99.90;;;;;;5089880;28;20239;-51
2022/06/11 03:53:47;;;;;;;6.57;4.70;;;14.80;99.90;;;;;;5074629;28;20204;-51
2022/06/11 03:56:16;;;;;;;9.73;4.27;;;14.90;99.90;;;;;;5088977;28;20267;-50
2022/06/11 03:58:49;;;;;;;6.10;4.33;;;14.90;99.90;;;;;;5089631;28;20208;-50
2022/06/11 04:01:19;;;;;;;6.93;4.57;;;15.00;99.90;;;;;;5089831;28;20208;-51
2022/06/11 04:03:50;;;;;;;6.67;4.00;;;15.00;99.90;;;;;;5088577;28;20223;-51
2022/06/11 04:06:21;;;;;;;5.93;4.20;;;15.20;99.90;;;;;;5089817;28;20236;-50
2022/06/11 04:08:49;;;;;;;7.13;4.50;;;15.20;99.90;;;;;;5089174;28;20235;-50
2022/06/11 04:11:18;;;;;;;7.23;4.23;;;15.20;99.90;;;;;;5089696;28;20240;-51
2022/06/11 04:13:49;;;;;;;7.00;3.90;;;15.20;99.90;;;;;;5089111;28;20209;-50
2022/06/11 04:16:23;;;;;;;7.72;4.38;;;15.30;99.90;;;;;;5075383;28;20227;-50
2022/06/11 04:18:52;;;;;;;6.28;3.80;;;15.50;99.90;;;;;;5089504;28;20207;-51
2022/06/11 04:21:21;;;;;;;6.10;3.60;;;15.50;99.90;;;;;;5089445;28;20204;-51
2022/06/11 04:23:52;;;;;;;6.50;4.10;;;15.50;99.90;;;;;;5090765;28;20715;-51
2022/06/11 04:26:23;;;;;;;7.78;4.65;;;15.60;99.90;;;;;;5092807;28;20259;-51
2022/06/11 04:28:53;;;;;;;5.18;4.05;;;15.60;99.90;;;;;;5091515;28;20722;-51
2022/06/11 04:31:21;;;;;;;5.65;4.35;;;15.60;99.90;;;;;;5089252;28;20212;-51
2022/06/11 04:33:49;;;;;;;7.00;4.13;;;15.70;99.90;;;;;;5089316;28;20227;-51
2022/06/11 04:36:20;;;;;;;7.43;4.68;;;15.80;99.90;;;;;;5091523;28;20313;-51
2022/06/11 04:38:48;;;;;;;7.15;4.05;;;15.80;99.90;;;;;;5093366;28;20204;-51
2022/06/11 04:41:17;;;;;;;6.10;4.95;;;15.90;99.90;;;;;;5093362;28;20277;-51
2022/06/11 04:43:45;;;;;;;7.75;4.60;;;16.00;99.90;;;;;;5093110;28;20699;-51
2022/06/11 04:46:16;;;;;;;6.85;4.65;;;16.00;99.90;;;;;;5093015;28;20235;-51
2022/06/11 04:48:45;;;;;;;6.07;4.55;;;16.10;99.90;;;;;;5092292;28;20204;-51
2022/06/11 04:51:14;;;;;;;9.48;4.38;;;16.20;99.90;;;;;;5093239;28;20265;-55
2022/06/11 04:53:42;;;;;;;5.63;3.95;;;16.20;99.90;;;;;;5078889;28;20201;-50
2022/06/11 04:56:13;;;;;;;7.43;4.10;;;16.30;99.90;;;;;;5093203;28;20220;-51
2022/06/11 04:58:42;;;;;;;4.97;4.20;;;16.20;99.90;;;;;;5093211;28;20201;-50
2022/06/11 05:01:10;;;;;;;9.38;4.90;;;16.20;99.90;;;;;;5093147;28;20200;-51
2022/06/11 05:03:39;;;;;;;7.70;4.07;;;16.30;99.90;;;;;;5092485;28;20232;-50
2022/06/11 05:06:07;;;;;;;7.15;4.68;;;16.40;99.90;;;;;;5102506;28;20243;-51
2022/06/11 05:08:36;;;;;;;8.85;5.15;;;16.40;99.90;;;;;;5112992;28;20257;-50
2022/06/11 05:11:05;;;;;;;6.15;4.40;;;16.50;99.90;;;;;;5113618;28;20667;-50
2022/06/11 05:13:33;;;;;;;8.77;4.25;;;16.50;99.90;;;;;;5113023;28;20203;-50
2022/06/11 05:16:01;;;;;;;7.65;4.07;;;16.60;99.90;;;;;;5101499;28;20235;-51
2022/06/11 05:18:32;;;;;;;6.10;3.83;;;16.60;99.90;;;;;;5112668;28;20809;-51
2022/06/11 05:21:03;;;;;;;6.05;3.88;;;16.60;99.90;;;;;;5112502;28;20207;-51
2022/06/11 05:23:31;;;;;;;5.53;4.00;;;16.60;99.90;;;;;;5089497;28;20616;-50
2022/06/11 05:25:59;;;;;;;7.25;4.68;;;16.60;99.90;;;;;;5102231;28;20246;-50
2022/06/11 05:28:32;;;;;;;10.48;4.82;;;16.70;99.90;;;;;;5112533;28;20755;-51
2022/06/11 05:31:00;;;;;;;7.22;5.05;;;16.70;99.90;;;;;;5112647;28;20239;-51
2022/06/11 05:33:29;;;;;;;10.95;5.65;;;16.70;99.90;;;;;;5084167;28;20238;-51
2022/06/11 05:35:57;;;;;;;11.93;5.40;;;16.70;99.90;;;;;;5112614;28;20223;-51
2022/06/11 05:38:30;;;;;;;8.73;4.95;;;16.70;99.90;;;;;;5112223;28;20192;-51
2022/06/11 05:40:59;;;;;;;8.27;4.55;;;16.80;99.90;;;;;;5112448;28;20684;-51
2022/06/11 05:43:27;;;;;;;6.05;4.47;;;16.80;99.90;;;;;;5112424;28;20260;-51
2022/06/11 05:45:59;;;;;;;10.90;5.15;;;16.90;99.90;;;;;;5111787;28;20225;-51
2022/06/11 05:48:32;;;;;;;8.82;5.85;;;16.90;99.90;;;;;;5100581;28;20721;-52
2022/06/11 05:51:00;;;;;;;8.93;5.55;;;17.00;99.90;;;;;;5095285;28;20895;-52
2022/06/11 05:53:34;;;;;;;8.63;5.60;;;17.00;99.90;;;;;;5096940;28;20227;-51
2022/06/11 05:56:03;;;;;;;11.27;5.55;;;17.00;99.90;;;;;;5093369;28;20701;-52
2022/06/11 05:58:35;;;;;;;9.05;5.18;;;17.00;99.90;;;;;;5091748;28;20208;-51
2022/06/11 06:01:04;;;;;;;9.07;5.07;;;17.00;99.90;;;;;;5077637;28;20209;-51
2022/06/11 06:03:32;;;;;;;9.82;5.28;;;17.00;99.90;;;;;;5091473;28;20561;-52
2022/06/11 06:06:01;;;;;;;9.40;5.38;;;17.10;99.90;;;;;;5091295;28;20651;-50
2022/06/11 06:08:30;;;;;;;9.65;5.20;;;17.10;99.90;;;;;;5091202;28;20250;-52
2022/06/11 06:10:58;;;;;;;7.25;4.93;;;17.10;99.90;;;;;;5090798;28;20208;-50
2022/06/11 06:16:12;;;;;;;6.72;5.10;;;17.10;99.90;;;;;;5090299;28;20252;-51
2022/06/11 06:18:40;;;;;;;7.63;5.22;;;17.20;99.90;;;;;;5091626;28;20204;-51
2022/06/11 06:21:08;;;;;;;8.18;5.55;;;17.20;99.90;;;;;;5091169;28;20261;-51
2022/06/11 06:23:38;;;;;;;9.30;5.72;;;17.30;99.90;;;;;;5090957;28;20730;-51
2022/06/11 06:26:06;;;;;;;6.43;5.13;;;17.20;99.90;;;;;;5091073;28;20698;-50
2022/06/11 06:28:34;;;;;;;8.60;5.68;;;17.30;99.90;;;;;;5090170;28;20213;-51
2022/06/11 06:31:04;;;;;;;6.75;5.18;;;17.30;99.90;;;;;;5091181;28;20287;-51
2022/06/11 06:33:33;;;;;;;9.48;5.05;;;17.40;99.90;;;;;;5091098;28;20207;-51
2022/06/11 06:36:03;;;;;;;7.43;5.20;;;17.50;99.90;;;;;;5090701;28;20658;-51
2022/06/11 06:38:31;;;;;;;5.80;4.97;;;17.60;99.90;;;;;;5090443;28;20232;-51
2022/06/11 06:41:00;;;;;;;6.15;5.35;;;17.70;99.90;;;;;;5090960;28;20341;-50
2022/06/11 06:43:28;;;;;;;7.43;5.55;;;17.80;99.90;;;;;;5086426;28;20213;-51
2022/06/11 06:45:56;;;;;;;10.70;5.88;;;17.90;99.90;;;;;;5078735;28;22199;-52
2022/06/11 06:48:24;;;;;;;9.32;5.47;;;17.90;99.90;;;;;;5088596;28;20970;-52
2022/06/11 06:50:53;;;;;;;7.53;5.40;;;17.90;99.90;;;;;;5089990;28;20196;-51
2022/06/11 06:53:22;;;;;;;9.38;5.80;;;18.00;99.90;;;;;;5090134;28;20262;-51
2022/06/11 06:55:50;;;;;;;8.70;5.93;;;18.10;99.90;;;;;;5090074;28;20273;-51
2022/06/11 06:58:21;;;;;;;11.27;6.28;;;18.30;99.90;;;;;;5090151;28;20212;-51
2022/06/11 07:00:50;;;;;;;6.13;4.90;;;18.40;99.90;;;;;;5090871;28;20254;-52
2022/06/11 07:03:18;;;;;;;12.77;6.10;;;18.60;99.90;;;;;;5090127;28;20216;-51
2022/06/11 07:05:46;;;;;;;10.68;6.40;;;18.70;99.90;;;;;;5090111;28;20224;-51
2022/06/11 07:08:14;;;;;;;11.32;6.13;;;18.80;99.90;;;;;;5090123;28;20232;-51
2022/06/11 07:10:46;;;;;;;11.23;6.18;;;19.10;99.90;;;;;;5090460;28;20208;-51
2022/06/11 07:13:15;;;;;;;8.88;5.68;;;19.20;99.90;;;;;;5090195;28;20207;-51
2022/06/11 07:15:46;;;;;;;8.20;5.55;;;19.30;99.90;;;;;;5089796;28;20293;-51
2022/06/11 07:18:18;;;;;;;8.80;5.50;;;19.50;99.90;;;;;;5090180;28;20200;-51
2022/06/11 07:20:48;;;;;;;9.55;5.40;;;19.60;99.90;;;;;;5090417;28;20217;-51
2022/06/11 07:23:20;;;;;;;7.07;4.55;;;19.80;99.90;;;;;;5089804;28;20209;-51
2022/06/11 07:25:51;;;;;;;6.00;4.28;;;20.20;99.90;;;;;;5089850;28;20671;-51
2022/06/11 07:28:23;;;;;;;7.15;4.72;;;20.30;99.90;;;;;;5089993;28;20301;-51
2022/06/11 07:30:53;;;;;;;8.55;4.05;;;20.40;99.90;;;;;;5089520;28;20208;-51
2022/06/11 07:33:25;;;;;;;8.70;3.92;;;20.40;99.90;;;;;;5082241;28;20211;-51
2022/06/11 07:35:54;;;;;;;9.10;5.15;;;20.60;99.90;;;;;;5082803;28;20278;-51
2022/06/11 07:38:29;;;;;;;9.50;4.72;;;20.70;99.90;;;;;;5089385;28;20196;-52
2022/06/11 07:40:57;;;;;;;9.23;4.50;;;20.70;99.90;;;;;;5088886;28;20208;-51
2022/06/11 07:43:25;;;;;;;9.30;4.95;;;20.80;99.90;;;;;;5090160;28;20254;-51
2022/06/11 07:45:54;;;;;;;7.70;4.60;;;20.80;99.90;;;;;;5089844;28;20231;-51
2022/06/11 07:48:22;;;;;;;7.22;4.43;;;20.80;99.90;;;;;;5089338;28;20252;-51
2022/06/11 07:50:52;;;;;;;8.38;4.85;;;20.80;99.90;;;;;;5089553;28;20287;-51
2022/06/11 07:53:22;;;;;;;7.85;4.60;;;20.80;99.90;;;;;;5089315;28;20208;-51
2022/06/11 07:55:53;;;;;;;9.93;4.82;;;21.30;99.90;;;;;;5089642;28;20220;-51
2022/06/11 07:58:26;;;;;;;12.15;4.40;;;21.40;99.90;;;;;;5089567;28;20687;-52
2022/06/11 08:00:57;;;;;;;6.05;3.90;;;21.60;99.90;;;;;;5089357;28;20207;-51
2022/06/11 08:03:27;;;;;;;6.32;3.90;;;21.80;99.90;;;;;;5089535;28;20204;-51
2022/06/11 08:05:56;;;;;;;11.52;4.25;;;21.90;99.90;;;;;;5089348;28;20402;-51
2022/06/11 08:08:25;;;;;;;6.97;3.92;;;21.90;99.90;;;;;;5089153;28;20304;-51
2022/06/11 08:10:59;;;;;;;10.70;4.03;;;22.10;99.90;;;;;;5090872;28;20681;-52
2022/06/11 08:13:27;;;;;;;4.40;3.42;;;22.10;99.90;;;;;;5095380;28;20204;-51
2022/06/11 08:15:58;;;;;;;8.95;3.90;;;22.20;99.90;;;;;;5104293;28;20249;-51
2022/06/11 08:18:27;;;;;;;6.75;3.65;;;22.20;99.90;;;;;;5101543;28;20226;-51
2022/06/11 08:20:55;;;;;;;9.63;4.40;;;22.20;99.90;;;;;;5109545;28;20207;-51
2022/06/11 08:23:24;;;;;;;6.18;3.97;;;22.00;99.90;;;;;;5100844;28;20199;-51
2022/06/11 08:25:52;;;;;;;6.32;3.45;;;22.00;99.90;;;;;;5102953;28;20280;-51
2022/06/11 08:28:20;;;;;;;8.23;3.90;;;21.90;99.90;;;;;;5109598;28;20249;-50
2022/06/11 08:30:49;;;;;;;6.22;4.22;;;22.00;99.90;;;;;;5109174;28;20211;-51
2022/06/11 08:33:20;;;;;;;7.47;4.47;;;22.10;99.90;;;;;;5109909;28;20199;-51
2022/06/11 08:35:49;;;;;;;6.82;3.97;;;22.20;99.90;;;;;;5109185;28;20223;-51
2022/06/11 08:38:17;;;;;;;9.35;4.25;;;22.60;99.90;;;;;;5109402;28;20203;-51
2022/06/11 08:40:48;;;;;;;6.60;3.50;;;22.80;99.90;;;;;;5109793;28;20634;-51
2022/06/11 08:43:21;;;;;;;7.30;3.75;;;23.00;99.90;;;;;;5081705;28;20207;-51
2022/06/11 08:45:53;;;;;;;3.92;3.50;;;23.10;99.90;;;;;;5109657;28;20227;-50
2022/06/11 08:48:34;;;;;;;66.65;19.50;;;23.30;99.90;;;;;;5102166;28;20625;-51
2022/06/11 08:51:07;;;;;;;25.27;10.18;;;23.30;99.90;;;;;;5109406;28;20200;-51
2022/06/11 08:53:38;;;;;;;7.35;3.90;;;23.60;99.90;;;;;;5096082;28;20208;-51
2022/06/11 08:56:16;;;;;;;19.05;5.85;;;23.70;99.90;;;;;;5101754;28;20693;-51
2022/06/11 08:59:01;;;;;;;12.82;4.75;;;23.90;99.90;;;;;;5089063;28;20200;-51
2022/06/11 09:01:38;;;;;;;3.58;2.65;;;24.10;99.90;;;;;;5088551;28;20244;-51
2022/06/11 09:04:20;;;;;;;9.80;3.65;;;24.20;99.90;;;;;;5088919;28;20785;-51
2022/06/11 09:07:00;;;;;;;7.85;3.53;;;24.50;99.90;;;;;;5088555;28;20774;-52
2022/06/11 09:09:42;;;;;;;9.73;4.97;;;24.30;99.90;;;;;;5089616;28;20196;-51
2022/06/11 09:12:35;;;;;;;8.10;3.63;;;24.40;99.90;;;;;;5089355;28;20269;-51
2022/06/11 09:15:15;;;;;;;7.30;3.10;;;24.50;99.90;;;;;;5089181;28;20247;-51
2022/06/11 09:18:03;;;;;;;11.43;4.63;;;24.50;99.90;;;;;;5088512;28;20197;-50
2022/06/11 09:20:41;;;;;;;14.05;3.85;;;24.60;99.90;;;;;;5088721;28;20204;-52
2022/06/11 09:23:28;;;;;;;3.30;2.00;;;24.60;99.90;;;;;;5092305;28;20810;-52
2022/06/11 09:26:09;;;;;;;2.97;1.80;;;24.70;99.90;;;;;;5092209;28;20228;-50
2022/06/11 09:28:41;;;;;;;3.67;2.35;;;24.90;99.90;;;;;;5091551;28;20864;-51
2022/06/11 09:31:13;;;;;;;6.53;2.28;;;25.20;99.90;;;;;;5084003;28;20212;-52
2022/06/11 09:33:49;;;;;;;12.77;5.85;;;25.40;99.90;;;;;;5091591;28;20208;-51
2022/06/11 09:36:25;;;;;;;3.70;2.08;;;25.50;99.90;;;;;;5089577;28;20312;-51
2022/06/11 09:39:02;;;;;;;6.75;2.50;;;25.80;99.90;;;;;;5091563;28;20246;-51
2022/06/11 09:41:46;;;;;;;1.75;1.35;;;25.80;99.90;;;;;;5091461;28;20236;-52
2022/06/11 09:44:29;;;;;;;2.70;1.58;;;25.80;99.90;;;;;;5091665;28;20212;-52
2022/06/11 09:47:03;;;;;;;2.00;1.55;;;25.80;99.90;;;;;;5091333;28;20263;-51
2022/06/11 09:49:37;;;;;;;2.17;1.52;;;25.80;99.90;;;;;;5091130;28;20224;-52
2022/06/11 09:52:16;;;;;;;3.50;2.00;;;25.70;99.90;;;;;;5091937;28;20246;-51
2022/06/11 09:54:53;;;;;;;3.00;1.80;;;25.80;99.90;;;;;;5091187;28;20204;-51
2022/06/11 09:57:38;;;;;;;1.80;1.60;;;25.80;99.90;;;;;;5091614;28;20677;-52
2022/06/11 10:00:15;;;;;;;2.78;1.50;;;25.90;99.90;;;;;;5091303;28;20208;-52
2022/06/11 10:02:51;;;;;;;2.38;1.50;;;26.20;99.90;;;;;;5078037;28;20242;-52
2022/06/11 10:05:26;;;;;;;3.63;1.80;;;26.40;99.90;;;;;;5086427;28;20306;-52
2022/06/11 10:08:02;;;;;;;2.67;1.40;;;26.50;99.90;;;;;;5077503;28;20734;-52
2022/06/11 10:10:34;;;;;;;2.13;1.50;;;26.40;99.90;;;;;;5090943;28;20673;-52
2022/06/11 10:13:09;;;;;;;2.08;1.20;;;26.10;99.90;;;;;;5091248;28;20247;-52
2022/06/11 10:15:40;;;;;;;2.45;1.17;;;26.30;99.90;;;;;;5090386;28;20223;-52
2022/06/11 10:18:16;;;;;;;1.42;1.10;;;26.30;99.90;;;;;;5090944;28;20237;-52
2022/06/11 10:20:50;;;;;;;1.63;1.20;;;26.40;99.90;;;;;;5090709;28;20203;-52
2022/06/11 10:23:28;;;;;;;1.52;1.30;;;26.40;99.90;;;;;;5090747;28;20257;-51
2022/06/11 10:26:00;;;;;;;1.30;1.02;;;26.40;99.90;;;;;;5091080;28;20670;-52
2022/06/11 10:28:34;;;;;;;1.60;1.20;;;26.50;99.90;;;;;;5090480;28;20647;-51
2022/06/11 10:31:07;;;;;;;2.67;1.25;;;26.70;99.90;;;;;;5091058;28;20264;-52
2022/06/11 10:33:42;;;;;;;2.88;1.60;;;26.70;99.90;;;;;;5089947;28;20673;-52
2022/06/11 10:36:15;;;;;;;2.83;1.50;;;26.80;99.90;;;;;;5089799;28;20724;-52
2022/06/11 10:38:51;;;;;;;3.28;1.40;;;26.70;99.90;;;;;;5090180;28;20200;-51
2022/06/11 10:41:25;;;;;;;2.00;1.42;;;26.90;99.90;;;;;;5090804;28;20243;-52
2022/06/11 10:44:03;;;;;;;2.28;1.52;;;26.90;99.90;;;;;;5090360;28;20230;-52
2022/06/11 10:46:34;;;;;;;3.65;1.40;;;26.90;99.90;;;;;;5089974;28;20228;-52
2022/06/11 10:49:04;;;;;;;1.10;0.95;;;26.90;99.90;;;;;;5089732;28;20248;-52
2022/06/11 10:51:35;;;;;;;2.00;1.27;;;26.70;99.90;;;;;;5090511;28;20212;-52
2022/06/11 10:54:11;;;;;;;1.83;1.30;;;26.60;99.90;;;;;;5090241;28;20693;-52
2022/06/11 10:56:44;;;;;;;1.75;1.23;;;26.60;99.90;;;;;;5090016;28;20227;-52
2022/06/11 10:59:20;;;;;;;1.77;1.25;;;26.80;99.90;;;;;;5090536;28;20204;-52
2022/06/11 11:01:54;;;;;;;1.25;1.15;;;26.80;99.90;;;;;;5089547;28;20208;-52
2022/06/11 11:04:37;;;;;;;2.13;1.50;;;26.70;99.90;;;;;;5075894;28;20207;-52
2022/06/11 11:07:15;;;;;;;1.88;1.30;;;26.50;99.90;;;;;;5089584;28;20228;-51
2022/06/11 11:09:45;;;;;;;2.38;1.35;;;26.50;99.90;;;;;;5089753;28;20240;-52
2022/06/11 11:12:26;;;;;;;2.47;1.17;;;26.40;99.90;;;;;;5089726;28;20244;-52
2022/06/11 11:15:00;;;;;;;1.00;0.80;;;26.30;99.90;;;;;;5090368;28;20684;-52
2022/06/11 11:17:32;;;;;;;1.25;0.77;;;26.40;99.90;;;;;;5089470;28;20211;-52
2022/06/11 11:20:30;;;;;;;0.90;0.75;;;26.50;99.90;;;;;;5089754;28;20196;-52
2022/06/11 11:23:06;;;;;;;1.88;0.95;;;26.90;99.90;;;;;;5089422;28;20204;-52
2022/06/11 11:25:39;;;;;;;1.38;0.77;;;27.10;99.90;;;;;;5089981;28;20226;-52
2022/06/11 11:28:25;;;;;;;2.80;0.80;;;27.40;99.90;;;;;;5089457;28;20208;-52
2022/06/11 11:31:17;;;;;;;0.77;0.65;;;27.60;99.90;;;;;;5089520;28;20204;-52
2022/06/11 11:33:59;;;;;;;0.57;0.57;;;27.60;99.90;;;;;;5088810;28;20208;-52
2022/06/11 11:36:29;;;;;;;0.80;0.80;;;27.60;99.90;;;;;;5087391;28;20267;-52
2022/06/11 11:39:15;;;;;;;1.02;0.93;;;27.50;99.90;;;;;;5089357;28;20261;-52
2022/06/11 11:41:53;;;;;;;1.02;0.90;;;27.40;99.90;;;;;;5089946;28;20250;-52
2022/06/11 11:44:23;;;;;;;1.27;0.88;;;27.30;99.90;;;;;;5088879;28;20212;-52
2022/06/11 11:46:54;;;;;;;1.17;0.85;;;27.10;99.90;;;;;;5088433;28;20259;-52
2022/06/11 11:49:26;;;;;;;1.38;0.68;;;27.30;99.90;;;;;;5088848;28;20277;-52
2022/06/11 11:52:01;;;;;;;1.00;0.90;;;27.10;99.90;;;;;;5089592;28;20248;-52
2022/06/11 11:54:30;;;;;;;1.17;0.80;;;26.90;99.90;;;;;;5088911;28;20626;-52
2022/06/11 11:57:03;;;;;;;0.80;0.70;;;26.70;99.90;;;;;;5089486;28;20220;-52
2022/06/11 11:59:37;;;;;;;1.15;0.90;;;26.90;99.90;;;;;;5089275;28;20193;-52
2022/06/11 12:02:15;;;;;;;1.45;0.82;;;27.30;99.90;;;;;;5089650;28;20211;-52
2022/06/11 12:04:51;;;;;;;1.38;0.73;;;27.40;99.90;;;;;;5088794;28;20200;-52
2022/06/11 12:07:40;;;;;;;1.30;1.20;;;27.40;99.90;;;;;;5089004;28;20215;-52
2022/06/11 12:10:19;;;;;;;0.98;0.70;;;27.40;99.90;;;;;;5089624;28;20251;-52
2022/06/11 12:12:53;;;;;;;0.80;0.80;;;27.30;99.90;;;;;;5084437;28;20204;-52
2022/06/11 12:15:23;;;;;;;0.60;0.60;;;27.40;99.90;;;;;;5072102;28;20294;-51
2022/06/11 12:17:54;;;;;;;2.35;0.90;;;27.40;99.90;;;;;;5087048;28;20250;-51
2022/06/11 12:20:35;;;;;;;1.50;0.95;;;27.40;99.90;;;;;;5088712;28;20200;-52
2022/06/11 12:23:16;;;;;;;0.82;0.82;;;27.10;99.90;;;;;;5088325;28;20212;-52
2022/06/11 12:25:48;;;;;;;1.08;0.98;;;27.00;99.90;;;;;;5088816;28;20255;-51
2022/06/11 12:28:23;;;;;;;1.67;0.85;;;27.00;99.90;;;;;;5075218;28;20203;-51
2022/06/11 12:30:51;;;;;;;1.25;1.05;;;26.80;99.90;;;;;;5088790;28;20262;-52
2022/06/11 12:33:20;;;;;;;1.30;1.20;;;26.80;99.90;;;;;;5087453;28;20211;-52
2022/06/11 12:35:54;;;;;;;1.30;1.20;;;26.90;99.90;;;;;;5100455;28;20228;-51
2022/06/11 12:38:34;;;;;;;1.77;1.10;;;27.00;99.90;;;;;;5107239;28;20203;-52
2022/06/11 12:41:17;;;;;;;2.88;1.40;;;27.10;99.90;;;;;;5109399;28;20195;-51
2022/06/11 12:43:52;;;;;;;1.58;1.48;;;27.10;99.90;;;;;;5109371;28;20672;-52
2022/06/11 12:46:29;;;;;;;1.95;1.40;;;27.10;99.90;;;;;;5109039;28;20347;-52
2022/06/11 12:49:12;;;;;;;3.17;1.25;;;27.10;99.90;;;;;;5103870;28;20211;-51
2022/06/11 12:51:59;;;;;;;4.60;1.40;;;26.80;99.90;;;;;;5108883;28;20688;-52
2022/06/11 12:54:37;;;;;;;2.40;1.20;;;26.60;99.90;;;;;;5108828;28;20841;-52
2022/06/11 12:57:32;;;;;;;2.08;1.40;;;26.60;99.90;;;;;;5094897;28;20224;-52
2022/06/11 13:00:11;;;;;;;2.05;1.30;;;26.60;99.90;;;;;;5092926;28;20258;-52
2022/06/11 13:02:54;;;;;;;1.20;1.05;;;26.90;99.90;;;;;;5091609;28;20204;-52
2022/06/11 13:05:39;;;;;;;1.98;1.17;;;27.20;99.90;;;;;;5092181;28;20220;-51
2022/06/11 13:08:25;;;;;;;2.80;1.33;;;27.30;99.90;;;;;;5092182;28;20216;-52
2022/06/11 13:11:00;;;;;;;2.53;1.33;;;27.20;99.90;;;;;;5092398;28;20250;-52
2022/06/11 13:13:55;;;;;;;2.33;1.23;;;27.20;99.90;;;;;;5084530;28;20204;-51
2022/06/11 13:16:33;;;;;;;1.15;1.02;;;27.20;99.90;;;;;;5087785;28;20215;-52
2022/06/11 13:19:16;;;;;;;2.28;1.25;;;27.20;99.90;;;;;;5089589;28;20282;-52